Time;durP1;ratioP1;P1;durP2;ratioP2;P2;SDS_P1;SDS_P2;PMS_P1;PMS_P2;Temp;Humidity;BMP_temperature;BMP_pressure;BME280_temperature;BME280_humidity;BME280_pressure;Samples;Min_cycle;Max_cycle;Signal;HPM_P1;HPM_P2
2021/11/26 00:00:05;;;;;;;5.07;1.73;;;;;;;;;;5000099;28;20278;-70
2021/11/26 00:02:32;;;;;;;4.63;1.23;;;;;;;;;;5000734;28;20235;-70
2021/11/26 00:04:58;;;;;;;3.50;1.30;;;;;;;;;;5000824;28;20247;-70
2021/11/26 00:07:25;;;;;;;2.43;0.83;;;;;;;;;;5000199;28;20219;-70
2021/11/26 00:09:52;;;;;;;2.23;0.53;;;;;;;;;;5000754;28;20239;-70
2021/11/26 00:12:20;;;;;;;2.73;0.40;;;;;;;;;;5000843;28;20290;-70
2021/11/26 00:14:51;;;;;;;2.00;0.67;;;;;;;;;;5000386;28;20223;-70
2021/11/26 00:17:19;;;;;;;4.30;0.60;;;;;;;;;;4999987;28;20456;-70
2021/11/26 00:19:45;;;;;;;2.30;0.43;;;;;;;;;;5000204;28;20398;-70
2021/11/26 00:22:12;;;;;;;3.23;0.40;;;;;;;;;;4999707;28;20212;-70
2021/11/26 00:24:38;;;;;;;1.33;0.60;;;;;;;;;;5000676;28;20216;-70
2021/11/26 00:27:06;;;;;;;3.07;0.53;;;;;;;;;;5000308;28;20212;-70
2021/11/26 00:29:32;;;;;;;3.60;0.47;;;;;;;;;;4999937;28;20203;-70
2021/11/26 00:31:59;;;;;;;5.07;0.40;;;;;;;;;;5000008;28;20215;-70
2021/11/26 00:34:25;;;;;;;2.03;0.60;;;;;;;;;;5001204;28;20236;-70
2021/11/26 00:36:52;;;;;;;2.30;0.40;;;;;;;;;;4999797;28;20812;-70
2021/11/26 00:39:18;;;;;;;1.80;0.30;;;;;;;;;;4999914;28;20298;-70
2021/11/26 00:41:45;;;;;;;3.00;0.50;;;;;;;;;;5000592;28;20681;-70
2021/11/26 00:44:13;;;;;;;2.37;0.40;;;;;;;;;;5000019;28;20215;-70
2021/11/26 00:46:39;;;;;;;1.53;0.40;;;;;;;;;;5000121;28;20208;-70
2021/11/26 00:49:06;;;;;;;2.23;0.60;;;;;;;;;;5000327;28;20248;-70
2021/11/26 00:51:32;;;;;;;2.27;0.73;;;;;;;;;;5000446;28;20273;-70
2021/11/26 00:53:59;;;;;;;2.20;0.90;;;;;;;;;;4999472;28;20208;-70
2021/11/26 00:56:26;;;;;;;4.67;0.90;;;;;;;;;;5000706;28;20219;-70
2021/11/26 00:58:52;;;;;;;5.70;1.57;;;;;;;;;;4999485;28;20282;-71
2021/11/26 01:01:20;;;;;;;5.03;1.00;;;;;;;;;;4999452;28;20262;-70
2021/11/26 01:03:46;;;;;;;5.30;1.27;;;;;;;;;;4999823;28;20232;-70
2021/11/26 01:06:13;;;;;;;4.83;1.17;;;;;;;;;;5000494;28;20212;-70
2021/11/26 01:08:39;;;;;;;5.23;1.57;;;;;;;;;;4999957;28;20566;-70
2021/11/26 01:11:07;;;;;;;4.60;1.50;;;;;;;;;;5003722;28;20852;-70
2021/11/26 01:13:34;;;;;;;4.50;1.27;;;;;;;;;;5004982;28;20223;-70
2021/11/26 01:16:00;;;;;;;4.33;1.17;;;;;;;;;;5003250;28;20219;-71
2021/11/26 01:18:28;;;;;;;4.57;1.17;;;;;;;;;;5002909;28;20481;-70
2021/11/26 01:20:55;;;;;;;4.80;0.90;;;;;;;;;;5003894;28;20290;-70
2021/11/26 01:23:23;;;;;;;4.30;1.37;;;;;;;;;;5003305;28;20773;-72
2021/11/26 01:25:49;;;;;;;4.27;1.10;;;;;;;;;;5003145;28;20557;-70
2021/11/26 01:28:16;;;;;;;2.50;0.93;;;;;;;;;;5004308;28;20286;-73
2021/11/26 01:30:45;;;;;;;3.13;0.90;;;;;;;;;;5003944;28;20727;-70
2021/11/26 01:33:13;;;;;;;4.33;0.80;;;;;;;;;;5002318;28;20236;-70
2021/11/26 01:35:42;;;;;;;2.80;1.10;;;;;;;;;;5003773;28;20208;-70
2021/11/26 01:38:10;;;;;;;2.50;0.90;;;;;;;;;;5003064;28;20223;-70
2021/11/26 01:40:38;;;;;;;2.57;0.60;;;;;;;;;;5002960;28;21085;-71
2021/11/26 01:43:08;;;;;;;2.67;0.70;;;;;;;;;;5002444;28;20215;-70
2021/11/26 01:45:41;;;;;;;5.80;1.27;;;;;;;;;;5003857;28;20207;-70
2021/11/26 01:48:07;;;;;;;1.63;0.80;;;;;;;;;;5002145;28;20813;-72
2021/11/26 01:50:33;;;;;;;2.60;0.73;;;;;;;;;;5002913;28;20702;-70
2021/11/26 01:53:01;;;;;;;1.97;0.67;;;;;;;;;;5002720;28;20211;-70
2021/11/26 01:55:28;;;;;;;3.17;0.80;;;;;;;;;;5003000;28;20219;-70
2021/11/26 01:57:54;;;;;;;2.23;0.80;;;;;;;;;;5002569;28;20208;-70
2021/11/26 02:00:25;;;;;;;3.77;0.70;;;;;;;;;;5003289;28;20866;-70
2021/11/26 02:02:51;;;;;;;2.97;0.80;;;;;;;;;;5003142;28;20267;-70
2021/11/26 02:05:18;;;;;;;2.47;0.70;;;;;;;;;;5002805;28;20216;-70
2021/11/26 02:07:44;;;;;;;2.90;0.67;;;;;;;;;;5003187;28;20212;-70
2021/11/26 02:10:12;;;;;;;4.13;0.87;;;;;;;;;;5002635;28;20318;-71
2021/11/26 02:12:39;;;;;;;2.13;0.70;;;;;;;;;;5002069;28;20270;-70
2021/11/26 02:15:06;;;;;;;4.37;0.90;;;;;;;;;;5002307;28;20219;-70
2021/11/26 02:17:34;;;;;;;4.13;1.07;;;;;;;;;;5001813;28;20623;-70
2021/11/26 02:20:13;;;;;;;2.40;0.90;;;;;;;;;;5000980;28;20220;-70
2021/11/26 02:22:40;;;;;;;2.80;1.03;;;;;;;;;;5002476;28;20671;-70
2021/11/26 02:25:08;;;;;;;1.90;1.10;;;;;;;;;;5002716;28;20907;-70
2021/11/26 02:27:36;;;;;;;4.00;1.30;;;;;;;;;;5002039;28;20222;-71
2021/11/26 02:30:12;;;;;;;6.70;1.83;;;;;;;;;;5002133;28;20235;-70
2021/11/26 02:32:39;;;;;;;3.63;1.70;;;;;;;;;;5002758;28;20223;-70
2021/11/26 02:35:08;;;;;;;7.43;1.63;;;;;;;;;;5001965;28;20601;-71
2021/11/26 02:37:35;;;;;;;5.37;1.70;;;;;;;;;;5001710;28;20211;-70
2021/11/26 02:40:01;;;;;;;3.43;2.20;;;;;;;;;;5002352;28;20872;-70
2021/11/26 02:42:28;;;;;;;4.43;2.10;;;;;;;;;;5001339;28;20242;-70
2021/11/26 02:44:54;;;;;;;5.60;2.03;;;;;;;;;;5001971;28;20274;-71
2021/11/26 02:47:21;;;;;;;4.17;2.00;;;;;;;;;;5001999;28;20663;-70
2021/11/26 02:49:47;;;;;;;4.40;1.90;;;;;;;;;;5001447;28;20209;-70
2021/11/26 02:52:15;;;;;;;6.03;2.33;;;;;;;;;;5001368;28;20212;-71
2021/11/26 02:54:42;;;;;;;11.17;2.57;;;;;;;;;;5002441;28;20212;-70
2021/11/26 02:57:08;;;;;;;8.17;2.50;;;;;;;;;;5001774;28;20285;-70
2021/11/26 02:59:34;;;;;;;3.43;2.40;;;;;;;;;;5001866;28;20717;-70
2021/11/26 03:02:01;;;;;;;6.70;2.80;;;;;;;;;;5001524;28;20262;-70
2021/11/26 03:04:27;;;;;;;4.67;2.90;;;;;;;;;;5002483;28;20245;-72
2021/11/26 03:07:00;;;;;;;6.43;2.43;;;;;;;;;;5001320;28;20266;-70
2021/11/26 03:09:28;;;;;;;7.10;3.20;;;;;;;;;;5001690;28;20219;-70
2021/11/26 03:11:54;;;;;;;6.50;2.77;;;;;;;;;;5002372;28;20208;-70
2021/11/26 03:14:20;;;;;;;8.90;3.30;;;;;;;;;;5001224;28;20671;-70
2021/11/26 03:16:47;;;;;;;6.87;3.30;;;;;;;;;;5000855;28;20224;-70
2021/11/26 03:19:14;;;;;;;4.77;2.97;;;;;;;;;;5000880;28;20794;-70
2021/11/26 03:21:40;;;;;;;8.13;3.40;;;;;;;;;;5001733;28;20657;-70
2021/11/26 03:24:07;;;;;;;6.37;3.20;;;;;;;;;;5000662;28;20210;-70
2021/11/26 03:26:35;;;;;;;7.80;3.10;;;;;;;;;;5002355;28;20208;-70
2021/11/26 03:29:01;;;;;;;6.20;2.83;;;;;;;;;;5001419;28;20750;-70
2021/11/26 03:31:28;;;;;;;6.10;3.70;;;;;;;;;;5000873;28;20238;-70
2021/11/26 03:33:54;;;;;;;8.30;3.83;;;;;;;;;;5000613;28;20282;-70
2021/11/26 03:36:21;;;;;;;8.67;3.50;;;;;;;;;;5001164;28;20208;-70
2021/11/26 03:38:47;;;;;;;5.73;3.03;;;;;;;;;;5000963;28;20212;-70
2021/11/26 03:41:14;;;;;;;4.97;3.23;;;;;;;;;;5000612;28;20232;-70
2021/11/26 03:43:42;;;;;;;5.67;3.20;;;;;;;;;;5001218;28;20220;-70
2021/11/26 03:46:08;;;;;;;7.80;4.10;;;;;;;;;;5000041;28;20215;-72
2021/11/26 03:48:35;;;;;;;9.10;3.60;;;;;;;;;;5000552;28;20245;-70
2021/11/26 03:51:01;;;;;;;7.50;3.83;;;;;;;;;;5001534;28;20242;-70
2021/11/26 03:53:27;;;;;;;8.83;3.13;;;;;;;;;;5000259;28;20208;-70
2021/11/26 03:55:54;;;;;;;5.37;3.20;;;;;;;;;;5000987;28;20667;-70
2021/11/26 03:58:20;;;;;;;5.87;3.20;;;;;;;;;;5001366;28;20963;-70
2021/11/26 04:00:48;;;;;;;7.03;3.77;;;;;;;;;;5000409;28;20486;-70
2021/11/26 04:03:15;;;;;;;6.67;3.57;;;;;;;;;;4999928;28;20710;-70
2021/11/26 04:05:41;;;;;;;9.13;3.70;;;;;;;;;;5001467;28;20635;-70
2021/11/26 04:08:08;;;;;;;7.03;3.50;;;;;;;;;;5000407;28;20952;-71
2021/11/26 04:10:35;;;;;;;9.30;3.43;;;;;;;;;;5000282;28;20290;-70
2021/11/26 04:13:02;;;;;;;10.00;3.60;;;;;;;;;;5000354;28;20216;-70
2021/11/26 04:15:29;;;;;;;7.70;3.30;;;;;;;;;;5001018;28;20212;-71
2021/11/26 04:17:57;;;;;;;4.17;2.87;;;;;;;;;;4998841;28;20255;-70
2021/11/26 04:20:23;;;;;;;4.90;2.57;;;;;;;;;;5000641;28;20232;-71
2021/11/26 04:22:50;;;;;;;6.77;2.70;;;;;;;;;;5000726;28;20761;-70
2021/11/26 04:25:18;;;;;;;5.67;1.90;;;;;;;;;;4998993;28;20207;-70
2021/11/26 04:27:45;;;;;;;6.63;1.70;;;;;;;;;;5000331;28;20627;-70
2021/11/26 04:30:13;;;;;;;6.57;2.03;;;;;;;;;;5000595;28;20211;-70
2021/11/26 04:32:40;;;;;;;6.37;1.67;;;;;;;;;;4999266;28;20247;-70
2021/11/26 04:35:10;;;;;;;5.63;1.50;;;;;;;;;;4999744;28;20215;-70
2021/11/26 04:37:36;;;;;;;3.80;1.20;;;;;;;;;;5001110;28;20219;-70
2021/11/26 04:40:05;;;;;;;5.10;1.47;;;;;;;;;;4999636;28;20235;-70
2021/11/26 04:42:32;;;;;;;3.60;0.90;;;;;;;;;;4999852;28;20231;-70
2021/11/26 04:44:58;;;;;;;3.90;0.80;;;;;;;;;;5004920;28;20212;-70
2021/11/26 04:47:24;;;;;;;4.33;0.90;;;;;;;;;;5004049;28;20239;-70
2021/11/26 04:49:51;;;;;;;1.73;0.80;;;;;;;;;;5003999;28;20358;-70
2021/11/26 04:52:19;;;;;;;2.20;0.80;;;;;;;;;;5004678;28;20216;-70
2021/11/26 04:54:46;;;;;;;4.57;1.30;;;;;;;;;;5003688;28;20216;-70
2021/11/26 04:57:13;;;;;;;2.40;0.70;;;;;;;;;;5003289;28;20270;-70
2021/11/26 04:59:39;;;;;;;5.50;1.07;;;;;;;;;;5005343;28;20580;-70
2021/11/26 05:02:06;;;;;;;6.67;1.37;;;;;;;;;;5003334;28;20301;-70
2021/11/26 05:04:32;;;;;;;6.30;1.10;;;;;;;;;;5003769;28;20698;-70
2021/11/26 05:07:01;;;;;;;3.60;1.07;;;;;;;;;;5004229;28;20266;-70
2021/11/26 05:09:29;;;;;;;4.80;0.93;;;;;;;;;;5003780;28;20265;-70
2021/11/26 05:11:55;;;;;;;4.33;1.00;;;;;;;;;;5003475;28;20207;-70
2021/11/26 05:14:23;;;;;;;14.47;2.13;;;;;;;;;;5003700;28;20702;-70
2021/11/26 05:16:50;;;;;;;5.93;1.10;;;;;;;;;;5004164;28;20741;-71
2021/11/26 05:19:17;;;;;;;3.23;1.00;;;;;;;;;;5002494;28;20301;-71
2021/11/26 05:21:43;;;;;;;3.47;1.20;;;;;;;;;;5004081;28;20219;-71
2021/11/26 05:24:12;;;;;;;2.97;1.10;;;;;;;;;;5003404;28;20588;-71
2021/11/26 05:26:39;;;;;;;2.40;0.80;;;;;;;;;;5004062;28;20299;-71
2021/11/26 05:29:06;;;;;;;2.77;0.87;;;;;;;;;;5003395;28;20266;-71
2021/11/26 05:31:36;;;;;;;3.67;0.57;;;;;;;;;;5004324;28;20254;-76
2021/11/26 05:34:03;;;;;;;5.60;0.90;;;;;;;;;;5002597;28;20239;-75
2021/11/26 05:36:29;;;;;;;4.67;1.23;;;;;;;;;;5003658;28;20212;-76
2021/11/26 05:38:56;;;;;;;3.00;0.90;;;;;;;;;;5003432;28;20669;-75
2021/11/26 05:41:22;;;;;;;3.33;0.80;;;;;;;;;;5003203;28;20223;-76
2021/11/26 05:43:50;;;;;;;4.07;0.90;;;;;;;;;;5003471;28;20237;-76
2021/11/26 05:46:17;;;;;;;5.57;0.90;;;;;;;;;;5003246;28;20220;-76
2021/11/26 05:48:43;;;;;;;4.13;1.00;;;;;;;;;;5002400;28;20305;-75
2021/11/26 05:51:10;;;;;;;2.77;0.77;;;;;;;;;;5003129;28;20208;-76
2021/11/26 05:53:36;;;;;;;3.40;0.70;;;;;;;;;;5004201;28;20285;-76
2021/11/26 05:56:03;;;;;;;2.47;0.70;;;;;;;;;;5001509;28;20274;-76
2021/11/26 05:58:29;;;;;;;4.07;0.87;;;;;;;;;;5003453;28;20219;-75
2021/11/26 06:00:57;;;;;;;4.90;0.80;;;;;;;;;;5003494;28;21309;-74
2021/11/26 06:03:24;;;;;;;2.93;0.60;;;;;;;;;;5002460;28;20231;-75
2021/11/26 06:05:50;;;;;;;5.93;0.60;;;;;;;;;;5002708;28;20223;-75
2021/11/26 06:08:17;;;;;;;2.53;0.80;;;;;;;;;;5003650;28;20204;-77
2021/11/26 06:10:44;;;;;;;4.30;0.67;;;;;;;;;;5003004;28;20212;-77
2021/11/26 06:13:11;;;;;;;2.97;1.10;;;;;;;;;;5002421;28;20215;-75
2021/11/26 06:15:37;;;;;;;4.00;2.07;;;;;;;;;;5003537;28;20651;-77
2021/11/26 06:18:05;;;;;;;6.30;1.00;;;;;;;;;;5002183;28;20231;-75
2021/11/26 06:20:32;;;;;;;6.33;1.63;;;;;;;;;;5002184;28;20219;-75
2021/11/26 06:22:58;;;;;;;2.87;1.13;;;;;;;;;;5003089;28;20544;-77
2021/11/26 06:25:25;;;;;;;2.90;1.00;;;;;;;;;;5002691;28;20224;-75
2021/11/26 06:27:52;;;;;;;5.90;1.77;;;;;;;;;;5002750;28;20307;-75
2021/11/26 06:30:21;;;;;;;6.10;1.50;;;;;;;;;;5002931;28;20870;-77
2021/11/26 06:32:48;;;;;;;5.67;1.20;;;;;;;;;;5002258;28;20228;-74
2021/11/26 06:35:19;;;;;;;8.27;1.80;;;;;;;;;;5002041;28;20208;-75
2021/11/26 06:37:45;;;;;;;7.33;2.00;;;;;;;;;;5002608;28;20219;-75
2021/11/26 06:40:13;;;;;;;3.93;1.67;;;;;;;;;;5002883;28;20582;-74
2021/11/26 06:42:39;;;;;;;6.77;1.60;;;;;;;;;;5000537;28;20282;-75
2021/11/26 06:45:07;;;;;;;4.40;1.40;;;;;;;;;;5001491;28;20215;-75
2021/11/26 06:47:34;;;;;;;7.10;1.60;;;;;;;;;;5001874;28;20311;-75
2021/11/26 06:50:01;;;;;;;6.00;1.87;;;;;;;;;;5001023;28;20742;-75
2021/11/26 06:52:28;;;;;;;9.13;1.93;;;;;;;;;;5001514;28;20215;-74
2021/11/26 06:54:56;;;;;;;8.03;2.57;;;;;;;;;;5002976;28;20238;-75
2021/11/26 06:57:23;;;;;;;7.97;2.47;;;;;;;;;;5001529;28;20230;-75
2021/11/26 06:59:49;;;;;;;7.37;2.70;;;;;;;;;;5000638;28;20219;-75
2021/11/26 07:02:15;;;;;;;5.73;2.50;;;;;;;;;;4999726;28;20575;-75
2021/11/26 07:04:44;;;;;;;6.53;1.80;;;;;;;;;;5001108;28;20907;-75
2021/11/26 07:07:10;;;;;;;5.60;2.70;;;;;;;;;;4999465;28;20266;-75
2021/11/26 07:09:38;;;;;;;8.47;2.63;;;;;;;;;;5000000;28;20282;-75
2021/11/26 07:12:09;;;;;;;7.10;2.50;;;;;;;;;;4998423;28;20239;-75
2021/11/26 07:14:36;;;;;;;10.03;2.60;;;;;;;;;;5000680;28;20833;-75
2021/11/26 07:17:02;;;;;;;11.53;3.00;;;;;;;;;;4998823;28;20227;-75
2021/11/26 07:19:29;;;;;;;7.67;2.70;;;;;;;;;;4998778;28;20224;-75
2021/11/26 07:21:55;;;;;;;10.03;2.77;;;;;;;;;;4999789;28;20730;-75
2021/11/26 07:24:22;;;;;;;6.00;2.27;;;;;;;;;;4998846;28;20245;-75
2021/11/26 07:26:49;;;;;;;6.53;2.80;;;;;;;;;;5000707;28;20682;-75
2021/11/26 07:29:16;;;;;;;9.43;2.90;;;;;;;;;;4998808;28;20214;-76
2021/11/26 07:31:43;;;;;;;7.43;2.37;;;;;;;;;;5000291;28;20270;-75
2021/11/26 07:34:09;;;;;;;7.30;3.30;;;;;;;;;;4998890;28;20969;-75
2021/11/26 07:36:36;;;;;;;5.40;2.50;;;;;;;;;;4999101;28;20216;-75
2021/11/26 07:39:02;;;;;;;8.73;2.53;;;;;;;;;;4999752;28;20227;-75
2021/11/26 07:41:29;;;;;;;7.70;2.50;;;;;;;;;;4997868;28;20235;-75
2021/11/26 07:43:57;;;;;;;6.13;2.57;;;;;;;;;;4999436;28;20208;-75
2021/11/26 07:46:23;;;;;;;9.30;3.00;;;;;;;;;;4997581;28;20216;-75
2021/11/26 07:48:50;;;;;;;6.83;2.87;;;;;;;;;;4999292;28;20231;-75
2021/11/26 07:51:16;;;;;;;6.97;2.57;;;;;;;;;;5000100;28;20212;-75
2021/11/26 07:53:43;;;;;;;8.50;2.70;;;;;;;;;;4999106;28;20212;-75
2021/11/26 07:56:09;;;;;;;6.60;2.33;;;;;;;;;;5000060;28;20274;-75
2021/11/26 07:58:36;;;;;;;7.37;2.10;;;;;;;;;;4999275;28;20615;-74
2021/11/26 08:01:03;;;;;;;7.67;2.63;;;;;;;;;;4998436;28;20297;-75
2021/11/26 08:03:30;;;;;;;7.13;1.90;;;;;;;;;;4999265;28;20220;-75
2021/11/26 08:05:57;;;;;;;5.87;2.53;;;;;;;;;;4998526;28;20224;-75
2021/11/26 08:08:23;;;;;;;6.07;2.40;;;;;;;;;;4998588;28;20236;-74
2021/11/26 08:10:50;;;;;;;8.17;2.30;;;;;;;;;;4998281;28;20588;-75
2021/11/26 08:13:16;;;;;;;6.90;1.90;;;;;;;;;;4998494;28;20598;-74
2021/11/26 08:15:42;;;;;;;6.83;2.13;;;;;;;;;;4999408;28;20212;-74
2021/11/26 08:18:11;;;;;;;4.07;1.70;;;;;;;;;;4996281;28;20235;-74
2021/11/26 08:20:37;;;;;;;4.87;1.93;;;;;;;;;;5000520;28;20226;-75
2021/11/26 08:23:04;;;;;;;5.07;1.93;;;;;;;;;;4999008;28;20231;-74
2021/11/26 08:25:31;;;;;;;3.63;1.40;;;;;;;;;;4997680;28;20261;-74
2021/11/26 08:27:57;;;;;;;5.03;2.00;;;;;;;;;;4998875;28;20579;-75
2021/11/26 08:30:24;;;;;;;5.80;1.97;;;;;;;;;;4995938;28;20800;-74
2021/11/26 08:32:52;;;;;;;7.77;2.10;;;;;;;;;;4998142;28;20258;-74
2021/11/26 08:35:20;;;;;;;6.70;2.13;;;;;;;;;;4965913;28;20212;-74
2021/11/26 08:37:47;;;;;;;9.07;2.60;;;;;;;;;;4983357;28;20694;-74
2021/11/26 08:40:14;;;;;;;10.53;1.93;;;;;;;;;;4992673;28;20207;-74
2021/11/26 08:42:40;;;;;;;8.93;2.03;;;;;;;;;;4992323;28;20274;-74
2021/11/26 08:45:08;;;;;;;7.93;2.07;;;;;;;;;;4991756;28;20610;-74
2021/11/26 08:47:34;;;;;;;5.53;1.13;;;;;;;;;;4993475;28;20283;-74
2021/11/26 08:50:01;;;;;;;5.83;1.67;;;;;;;;;;4993472;28;20208;-74
2021/11/26 08:52:30;;;;;;;5.60;1.90;;;;;;;;;;4994279;28;20305;-74
2021/11/26 08:54:57;;;;;;;8.37;2.00;;;;;;;;;;4994894;28;20514;-75
2021/11/26 08:57:27;;;;;;;4.13;1.00;;;;;;;;;;4994636;28;20223;-75
2021/11/26 08:59:54;;;;;;;6.93;1.63;;;;;;;;;;4994474;28;20959;-74
2021/11/26 09:02:21;;;;;;;7.23;1.93;;;;;;;;;;4992779;28;20224;-74
2021/11/26 09:04:48;;;;;;;5.30;1.40;;;;;;;;;;4993841;28;20330;-74
2021/11/26 09:07:14;;;;;;;4.40;1.60;;;;;;;;;;4995124;28;20211;-74
2021/11/26 09:09:42;;;;;;;7.37;1.87;;;;;;;;;;4994971;28;20232;-73
2021/11/26 09:12:09;;;;;;;7.23;1.13;;;;;;;;;;4994539;28;20310;-74
2021/11/26 09:14:35;;;;;;;5.63;1.70;;;;;;;;;;4993102;28;20617;-74
2021/11/26 09:17:02;;;;;;;6.43;1.80;;;;;;;;;;4996290;28;20293;-74
2021/11/26 09:19:28;;;;;;;6.10;1.73;;;;;;;;;;4994496;28;20303;-74
2021/11/26 09:21:54;;;;;;;4.40;1.60;;;;;;;;;;4994900;28;20817;-73
2021/11/26 09:24:21;;;;;;;9.30;2.43;;;;;;;;;;4992959;28;20270;-74
2021/11/26 09:26:49;;;;;;;9.43;2.40;;;;;;;;;;4996295;28;20219;-74
2021/11/26 09:29:15;;;;;;;8.23;2.10;;;;;;;;;;4994360;28;20609;-73
2021/11/26 09:31:42;;;;;;;6.70;1.70;;;;;;;;;;4999136;28;20270;-73
2021/11/26 09:34:08;;;;;;;3.67;1.70;;;;;;;;;;4995875;28;20227;-73
2021/11/26 09:36:36;;;;;;;7.23;1.93;;;;;;;;;;4999285;28;20223;-73
2021/11/26 09:39:05;;;;;;;7.20;2.17;;;;;;;;;;4998717;28;20239;-72
2021/11/26 09:41:31;;;;;;;4.93;1.90;;;;;;;;;;4999853;28;20223;-74
2021/11/26 09:44:01;;;;;;;7.33;2.10;;;;;;;;;;4995478;28;20235;-76
2021/11/26 09:46:29;;;;;;;5.13;1.73;;;;;;;;;;4998916;28;20354;-74
2021/11/26 09:48:56;;;;;;;10.00;2.37;;;;;;;;;;4997092;28;20275;-75
2021/11/26 09:51:22;;;;;;;7.23;1.73;;;;;;;;;;4999517;28;20726;-75
2021/11/26 09:53:49;;;;;;;5.03;1.80;;;;;;;;;;4998287;28;20212;-75
2021/11/26 09:56:15;;;;;;;4.87;2.20;;;;;;;;;;5000892;28;20270;-75
2021/11/26 09:58:43;;;;;;;5.90;2.40;;;;;;;;;;5002346;28;20211;-76
2021/11/26 10:01:11;;;;;;;8.03;2.50;;;;;;;;;;5000911;28;20220;-74
2021/11/26 10:03:41;;;;;;;7.00;3.43;;;;;;;;;;5001859;28;20239;-76
2021/11/26 10:06:19;;;;;;;6.03;2.60;;;;;;;;;;5000019;28;20211;-77
2021/11/26 10:08:56;;;;;;;5.90;2.20;;;;;;;;;;5002165;28;20218;-77
2021/11/26 10:11:25;;;;;;;6.43;2.33;;;;;;;;;;5001224;28;20629;-77
2021/11/26 10:13:52;;;;;;;9.37;2.93;;;;;;;;;;5001260;28;20396;-76
2021/11/26 10:16:21;;;;;;;8.10;3.00;;;;;;;;;;5001421;28;20219;-74
2021/11/26 10:18:49;;;;;;;11.30;3.30;;;;;;;;;;5000512;28;20292;-75
2021/11/26 10:21:17;;;;;;;8.30;3.57;;;;;;;;;;5001170;28;20219;-75
2021/11/26 10:23:45;;;;;;;10.37;3.47;;;;;;;;;;5001356;28;20239;-75
2021/11/26 10:26:14;;;;;;;8.67;2.73;;;;;;;;;;5000478;28;20215;-75
2021/11/26 10:28:42;;;;;;;9.83;3.70;;;;;;;;;;5001596;28;20609;-75
2021/11/26 10:31:20;;;;;;;7.50;3.10;;;;;;;;;;5000103;28;20238;-75
2021/11/26 10:33:47;;;;;;;8.07;3.00;;;;;;;;;;5001063;28;20236;-75
2021/11/26 10:36:13;;;;;;;6.23;2.93;;;;;;;;;;4999570;28;20230;-75
2021/11/26 10:38:40;;;;;;;8.30;4.17;;;;;;;;;;5000860;28;20901;-75
2021/11/26 10:41:09;;;;;;;10.50;4.07;;;;;;;;;;4999637;28;20204;-75
2021/11/26 10:43:41;;;;;;;5.90;2.53;;;;;;;;;;4999669;28;20224;-75
2021/11/26 10:46:39;;;;;;;13.73;3.43;;;;;;;;;;5000364;28;20215;-75
2021/11/26 10:52:13;;;;;;;9.83;3.43;;;;;;;;;;5000025;28;20225;-74
2021/11/26 11:00:14;;;;;;;10.80;2.80;;;;;;;;;;4989609;28;20214;-74
2021/11/26 11:02:43;;;;;;;11.43;3.77;;;;;;;;;;5000841;28;20235;-75
2021/11/26 11:05:21;;;;;;;13.67;4.27;;;;;;;;;;5000551;28;20750;-74
2021/11/26 11:07:47;;;;;;;10.67;3.00;;;;;;;;;;4999513;28;20278;-73
2021/11/26 11:10:23;;;;;;;5.63;3.20;;;;;;;;;;5000601;28;20220;-74
2021/11/26 11:12:49;;;;;;;9.50;4.00;;;;;;;;;;5001265;28;20281;-73
2021/11/26 11:15:16;;;;;;;6.50;3.37;;;;;;;;;;5000383;28;20223;-74
2021/11/26 11:17:46;;;;;;;8.37;2.67;;;;;;;;;;4999588;28;20236;-73
2021/11/26 11:20:16;;;;;;;7.37;2.87;;;;;;;;;;4999915;28;20299;-74
2021/11/26 11:22:46;;;;;;;9.80;2.80;;;;;;;;;;5000325;28;20232;-73
2021/11/26 11:25:17;;;;;;;6.80;2.70;;;;;;;;;;4999454;28;20223;-73
2021/11/26 11:27:43;;;;;;;5.37;2.87;;;;;;;;;;5000837;28;20298;-73
2021/11/26 11:30:12;;;;;;;7.93;2.17;;;;;;;;;;5000693;28;20262;-73
2021/11/26 11:32:40;;;;;;;5.63;2.13;;;;;;;;;;4999163;28;20695;-74
2021/11/26 11:35:08;;;;;;;9.50;3.47;;;;;;;;;;4999890;28;20222;-73
2021/11/26 11:37:37;;;;;;;7.93;3.03;;;;;;;;;;5001038;28;20216;-73
2021/11/26 11:40:08;;;;;;;6.13;2.70;;;;;;;;;;5000542;28;20749;-73
2021/11/26 11:42:37;;;;;;;9.80;2.90;;;;;;;;;;4999850;28;20339;-73
2021/11/26 11:45:10;;;;;;;5.77;2.10;;;;;;;;;;4998754;28;20215;-73
2021/11/26 11:47:42;;;;;;;5.23;2.30;;;;;;;;;;4999319;28;20265;-73
2021/11/26 11:50:11;;;;;;;5.60;2.70;;;;;;;;;;4998053;28;20216;-73
2021/11/26 11:52:46;;;;;;;5.37;2.03;;;;;;;;;;4998602;28;20208;-73
2021/11/26 11:55:25;;;;;;;3.97;1.77;;;;;;;;;;4998216;28;20222;-73
2021/11/26 11:57:55;;;;;;;4.87;1.90;;;;;;;;;;4998847;28;20219;-74
2021/11/26 12:00:23;;;;;;;5.27;2.43;;;;;;;;;;4998774;28;20234;-74
2021/11/26 12:02:51;;;;;;;3.73;1.93;;;;;;;;;;4998275;28;20938;-73
2021/11/26 12:05:23;;;;;;;4.80;2.20;;;;;;;;;;4999173;28;20216;-74
2021/11/26 12:08:02;;;;;;;4.73;2.07;;;;;;;;;;4997936;28;20208;-73
2021/11/26 12:10:28;;;;;;;5.57;2.80;;;;;;;;;;4999473;28;20199;-74
2021/11/26 12:12:57;;;;;;;6.43;2.77;;;;;;;;;;4997869;28;20298;-74
2021/11/26 12:15:28;;;;;;;7.30;2.37;;;;;;;;;;4998924;28;20734;-74
2021/11/26 12:17:59;;;;;;;5.13;2.00;;;;;;;;;;4997831;28;20235;-74
2021/11/26 12:20:26;;;;;;;7.37;2.70;;;;;;;;;;4997622;28;20226;-74
2021/11/26 12:22:58;;;;;;;5.77;2.23;;;;;;;;;;4998722;28;20235;-73
2021/11/26 12:25:37;;;;;;;2.43;1.77;;;;;;;;;;4998251;28;20204;-74
2021/11/26 12:28:07;;;;;;;6.27;2.80;;;;;;;;;;4997391;28;20219;-74
2021/11/26 12:30:35;;;;;;;4.43;2.03;;;;;;;;;;4998274;28;20254;-74
2021/11/26 12:33:16;;;;;;;6.60;2.70;;;;;;;;;;4996593;28;20227;-73
2021/11/26 12:35:54;;;;;;;6.60;2.13;;;;;;;;;;4998412;28;20258;-73
2021/11/26 12:38:22;;;;;;;7.20;2.37;;;;;;;;;;4997987;28;20211;-74
2021/11/26 12:40:49;;;;;;;5.43;2.03;;;;;;;;;;4998076;28;20219;-73
2021/11/26 12:43:16;;;;;;;5.87;2.30;;;;;;;;;;4997733;28;20227;-73
2021/11/26 12:45:42;;;;;;;8.73;2.43;;;;;;;;;;4997511;28;20216;-74
2021/11/26 12:48:10;;;;;;;7.40;2.83;;;;;;;;;;4996780;28;20252;-73
2021/11/26 12:53:25;;;;;;;5.17;2.40;;;;;;;;;;4997404;28;21242;-75
2021/11/26 12:55:55;;;;;;;2.93;1.73;;;;;;;;;;4999088;28;20688;-74
2021/11/26 12:58:23;;;;;;;6.13;2.00;;;;;;;;;;4997263;28;20670;-73
2021/11/26 13:00:54;;;;;;;7.70;2.40;;;;;;;;;;4997967;28;20253;-74
2021/11/26 13:03:21;;;;;;;4.83;2.20;;;;;;;;;;4998360;28;20250;-74
2021/11/26 13:05:51;;;;;;;3.70;2.50;;;;;;;;;;5000675;28;20266;-74
2021/11/26 13:08:18;;;;;;;7.80;2.83;;;;;;;;;;5004951;28;20213;-74
2021/11/26 13:10:46;;;;;;;4.00;1.87;;;;;;;;;;5003321;28;20294;-74
2021/11/26 13:13:12;;;;;;;8.07;4.07;;;;;;;;;;5001513;28;20285;-75
2021/11/26 13:15:40;;;;;;;6.90;2.33;;;;;;;;;;5001597;28;20216;-75
2021/11/26 13:18:15;;;;;;;7.10;2.23;;;;;;;;;;5000472;28;20813;-74
2021/11/26 13:20:44;;;;;;;8.13;3.77;;;;;;;;;;5002315;28;20725;-73
2021/11/26 13:23:13;;;;;;;6.97;2.90;;;;;;;;;;5000578;28;21045;-74
2021/11/26 13:25:42;;;;;;;6.97;3.00;;;;;;;;;;5002195;28;20583;-73
2021/11/26 13:28:12;;;;;;;8.00;4.33;;;;;;;;;;5000736;28;20629;-74
2021/11/26 13:30:44;;;;;;;5.60;3.07;;;;;;;;;;5000622;28;20219;-73
2021/11/26 13:33:14;;;;;;;6.23;4.00;;;;;;;;;;5001869;28;20836;-73
2021/11/26 13:35:44;;;;;;;6.13;3.50;;;;;;;;;;5000433;28;20216;-74
2021/11/26 13:38:13;;;;;;;3.80;2.33;;;;;;;;;;5000875;28;20210;-74
2021/11/26 13:40:43;;;;;;;6.47;4.00;;;;;;;;;;5001496;28;20208;-74
2021/11/26 13:43:13;;;;;;;5.07;3.97;;;;;;;;;;4999594;28;20240;-75
2021/11/26 13:45:48;;;;;;;4.83;3.17;;;;;;;;;;5002066;28;20207;-73
2021/11/26 13:48:15;;;;;;;4.80;3.27;;;;;;;;;;4999961;28;20249;-74
2021/11/26 13:50:42;;;;;;;6.73;3.23;;;;;;;;;;5001836;28;20264;-73
2021/11/26 13:53:09;;;;;;;4.83;3.87;;;;;;;;;;4998327;28;20446;-73
2021/11/26 13:55:37;;;;;;;4.80;4.40;;;;;;;;;;5000354;28;20285;-73
2021/11/26 13:58:08;;;;;;;3.87;3.17;;;;;;;;;;5000741;28;20318;-73
2021/11/26 14:00:43;;;;;;;4.23;3.10;;;;;;;;;;5000828;28;20224;-73
2021/11/26 14:03:10;;;;;;;6.57;5.07;;;;;;;;;;5000398;28;20231;-73
2021/11/26 14:05:38;;;;;;;2.80;2.40;;;;;;;;;;5000138;28;20271;-73
2021/11/26 14:08:06;;;;;;;4.30;3.87;;;;;;;;;;5000969;28;20208;-74
2021/11/26 14:10:33;;;;;;;5.50;3.80;;;;;;;;;;5000127;28;20366;-74
2021/11/26 14:13:02;;;;;;;5.77;4.53;;;;;;;;;;5000185;28;20222;-73
2021/11/26 14:15:29;;;;;;;5.50;3.50;;;;;;;;;;5000267;28;20689;-72
2021/11/26 14:17:57;;;;;;;3.90;3.60;;;;;;;;;;4999386;28;20278;-73
2021/11/26 14:20:24;;;;;;;4.83;4.37;;;;;;;;;;5000212;28;20212;-73
2021/11/26 14:22:52;;;;;;;4.03;3.70;;;;;;;;;;5000005;28;20215;-73
2021/11/26 14:25:19;;;;;;;2.63;2.43;;;;;;;;;;5000548;28;20291;-73
2021/11/26 14:27:49;;;;;;;2.53;2.20;;;;;;;;;;5000300;28;20212;-73
2021/11/26 14:30:19;;;;;;;5.10;3.73;;;;;;;;;;5000690;28;20712;-72
2021/11/26 14:32:53;;;;;;;4.30;3.77;;;;;;;;;;4999037;28;20231;-72
2021/11/26 14:35:23;;;;;;;4.30;3.27;;;;;;;;;;5000716;28;20211;-72
2021/11/26 14:37:50;;;;;;;3.83;2.63;;;;;;;;;;4999866;28;20219;-72
2021/11/26 14:40:20;;;;;;;4.47;3.77;;;;;;;;;;5000455;28;20890;-72
2021/11/26 14:42:46;;;;;;;2.70;2.17;;;;;;;;;;4998905;28;20695;-72
2021/11/26 14:45:13;;;;;;;2.80;2.20;;;;;;;;;;4999897;28;20228;-72
2021/11/26 14:47:40;;;;;;;5.47;3.37;;;;;;;;;;5000056;28;20243;-72
2021/11/26 14:50:15;;;;;;;3.50;3.20;;;;;;;;;;4999436;28;20231;-72
2021/11/26 14:52:43;;;;;;;2.77;2.10;;;;;;;;;;5000068;28;20819;-72
2021/11/26 14:55:11;;;;;;;3.83;3.47;;;;;;;;;;4998949;28;20207;-72
2021/11/26 14:57:38;;;;;;;3.13;2.83;;;;;;;;;;5000559;28;20204;-72